Bruksela, Belgia

00:10 CEST dnia 28-kwiecień-2015 (GMT +0200)
Berg | | Change Station
CLOSE
Current Station
Stacja PWS
Location: Kampenhout, VLAAMS BRABANT
n.p.m.: 54 ft
Najbliższa stacja pogodowa

Wysokość 54 ft 50.93 °N, 4.53 °E | Updated 8 minutes ago

Scattered Clouds
obłoki zanikające
43.5 ° F
Odczuwalna 44 ° F
Płn.
0.0
Wiatr zmienny Wiatr od północny
Gusts 1.0 mph

Dziś
Wysoka -- | Niska -- ° F
--% Prawdop. opadów
Wczoraj
Wysoka -- | Niska -- ° F
Precip. -- cali
6:22 AM 8:57 PM
Powiększający się Księżyc, 68% visible
Ciśnienie 29.86 cali
Widzialność 6.2 mil
chmury Niewiele 5200 ft
obłoki zanikające 22000 ft
czynnik chłodzący wiatru 44 ° F
Punkt rosy 31 ° F
Wilgotność 60%
Opady deszczu 0.02 cali
grubość pokrywy śnieżnej Niedostępne.
UV 0.0 z 12
Pyłki Niedostępne.
Jakość powietrza Niedostępne.
Flu Activity Niedostępne.
SPECI EBBE 272204Z 33004KT 9999 FEW052 SCT220 06/M00 Q1011 BLU FCST CANCEL

More Conditions Fewer Conditions

Ciśnienie 29.86 cali
Widzialność 6.2 mil
chmury Niewiele 5200 ft
obłoki zanikające 22000 ft
czynnik chłodzący wiatru 44 ° F
Punkt rosy 31 ° F
Wilgotność 60%
Opady deszczu 0.02 cali
grubość pokrywy śnieżnej Niedostępne.
UV 0.0 z 12
Pyłki Niedostępne.
Jakość powietrza Niedostępne.
Flu Activity Niedostępne.
SPECI EBBE 272204Z 33004KT 9999 FEW052 SCT220 06/M00 Q1011 BLU FCST CANCEL

More Conditions Fewer Conditions

10-Day Weather Forecast

Almanac

Astronomia

Apr. 28, 2015 Wschód Zachów
Aktualny czas
Zmierzch cywilny
Zmierzch żeglarski
świt/zmierzch astronomiczny
Księżyc
całkowite oświetlenie
Długość dnia
Tomorrow will be .
, % of the Moon is Illuminated

Dzisiejsze ekstrema

Country Highs Country Lows

Community

WunderPhotos

Upload Photos

1,817,442 zdjęcia zostały przesłane!

WunderBlogs® & News

Nearby

Jakość powietrza

  Jakość powietrza czynnik AQ Zanieczyszczenie
Not available.

Głębokość pokrywy śnieżnej

Station Depth n.p.m.

Aktywność sejsmiczna

Miejscowość Distance Mag. Time & Date
Minimum magnitude displayed is 2.5.

Temperatury wody na wybrzeżu

Miejsce Temperatura

Stations

Najbliższa stacja pogodowa

Lokalizacja stacji Temp. czynnik chłodzący wiatru Punkt rosy Wilgotność Wiatr Precip. Wysokość Uaktualniono Typ